sensor_id;sensor_type;location;lat;lon;timestamp;temperature;humidity
55488;DHT22;41352;53.158;6.788;2022-08-21T00:02:20;15.40;99.90
55488;DHT22;41352;53.158;6.788;2022-08-21T00:04:46;15.40;99.90
55488;DHT22;41352;53.158;6.788;2022-08-21T00:07:12;15.40;99.90
55488;DHT22;41352;53.158;6.788;2022-08-21T00:09:38;15.30;99.90
55488;DHT22;41352;53.158;6.788;2022-08-21T00:12:05;15.30;99.90
55488;DHT22;41352;53.158;6.788;2022-08-21T00:14:31;15.20;99.90
55488;DHT22;41352;53.158;6.788;2022-08-21T00:16:57;15.20;99.90
55488;DHT22;41352;53.158;6.788;2022-08-21T00:19:23;15.20;99.90
55488;DHT22;41352;53.158;6.788;2022-08-21T00:21:51;15.10;99.90
55488;DHT22;41352;53.158;6.788;2022-08-21T00:24:18;15.00;99.90
55488;DHT22;41352;53.158;6.788;2022-08-21T00:26:44;15.00;99.90
55488;DHT22;41352;53.158;6.788;2022-08-21T00:29:10;14.90;99.90
55488;DHT22;41352;53.158;6.788;2022-08-21T00:31:36;14.90;99.90
55488;DHT22;41352;53.158;6.788;2022-08-21T00:34:02;14.90;99.90
55488;DHT22;41352;53.158;6.788;2022-08-21T00:36:29;15.00;99.90
55488;DHT22;41352;53.158;6.788;2022-08-21T00:38:55;14.90;99.90
55488;DHT22;41352;53.158;6.788;2022-08-21T00:41:21;14.90;99.90
55488;DHT22;41352;53.158;6.788;2022-08-21T00:43:49;14.90;99.90
55488;DHT22;41352;53.158;6.788;2022-08-21T00:46:15;14.90;99.90
55488;DHT22;41352;53.158;6.788;2022-08-21T00:48:41;14.80;99.90
55488;DHT22;41352;53.158;6.788;2022-08-21T00:51:15;14.80;99.90
55488;DHT22;41352;53.158;6.788;2022-08-21T00:53:48;14.80;99.90
55488;DHT22;41352;53.158;6.788;2022-08-21T00:56:17;14.80;99.90
55488;DHT22;41352;53.158;6.788;2022-08-21T00:58:44;14.70;99.90
55488;DHT22;41352;53.158;6.788;2022-08-21T01:01:11;14.70;99.90
55488;DHT22;41352;53.158;6.788;2022-08-21T01:03:37;14.70;99.90
55488;DHT22;41352;53.158;6.788;2022-08-21T01:06:04;14.60;99.90
55488;DHT22;41352;53.158;6.788;2022-08-21T01:08:31;14.60;99.90
55488;DHT22;41352;53.158;6.788;2022-08-21T01:10:58;14.60;99.90
55488;DHT22;41352;53.158;6.788;2022-08-21T01:13:25;14.60;99.90
55488;DHT22;41352;53.158;6.788;2022-08-21T01:15:54;14.60;99.90
55488;DHT22;41352;53.158;6.788;2022-08-21T01:18:21;14.60;99.90
55488;DHT22;41352;53.158;6.788;2022-08-21T01:21:20;14.60;99.90
55488;DHT22;41352;53.158;6.788;2022-08-21T01:23:51;14.60;99.90
55488;DHT22;41352;53.158;6.788;2022-08-21T01:26:22;14.50;99.90
55488;DHT22;41352;53.158;6.788;2022-08-21T01:28:59;14.60;99.90
55488;DHT22;41352;53.158;6.788;2022-08-21T01:31:27;14.50;99.90
55488;DHT22;41352;53.158;6.788;2022-08-21T01:33:55;14.40;99.90
55488;DHT22;41352;53.158;6.788;2022-08-21T01:36:21;14.50;99.90
55488;DHT22;41352;53.158;6.788;2022-08-21T01:38:47;14.40;99.90
55488;DHT22;41352;53.158;6.788;2022-08-21T01:41:14;14.50;99.90
55488;DHT22;41352;53.158;6.788;2022-08-21T01:43:41;14.50;99.90
55488;DHT22;41352;53.158;6.788;2022-08-21T01:46:07;14.40;99.90
55488;DHT22;41352;53.158;6.788;2022-08-21T01:48:33;14.40;99.90
55488;DHT22;41352;53.158;6.788;2022-08-21T01:50:59;13.90;99.90
55488;DHT22;41352;53.158;6.788;2022-08-21T01:53:24;14.30;99.90
55488;DHT22;41352;53.158;6.788;2022-08-21T01:55:50;14.30;99.90
55488;DHT22;41352;53.158;6.788;2022-08-21T01:58:16;14.30;99.90
55488;DHT22;41352;53.158;6.788;2022-08-21T02:00:41;14.30;99.90
55488;DHT22;41352;53.158;6.788;2022-08-21T02:03:07;14.30;99.90
55488;DHT22;41352;53.158;6.788;2022-08-21T02:05:33;14.20;99.90
55488;DHT22;41352;53.158;6.788;2022-08-21T02:07:59;14.20;99.90
55488;DHT22;41352;53.158;6.788;2022-08-21T02:10:31;13.80;99.90
55488;DHT22;41352;53.158;6.788;2022-08-21T02:12:57;14.20;99.90
55488;DHT22;41352;53.158;6.788;2022-08-21T02:15:25;14.10;99.90
55488;DHT22;41352;53.158;6.788;2022-08-21T02:17:56;14.00;99.90
55488;DHT22;41352;53.158;6.788;2022-08-21T02:20:38;14.00;99.90
55488;DHT22;41352;53.158;6.788;2022-08-21T02:23:05;13.90;99.90
55488;DHT22;41352;53.158;6.788;2022-08-21T02:25:31;13.90;99.90
55488;DHT22;41352;53.158;6.788;2022-08-21T02:27:58;13.90;99.90
55488;DHT22;41352;53.158;6.788;2022-08-21T02:30:28;13.80;99.90
55488;DHT22;41352;53.158;6.788;2022-08-21T02:32:56;13.80;99.90
55488;DHT22;41352;53.158;6.788;2022-08-21T02:35:23;13.80;99.90
55488;DHT22;41352;53.158;6.788;2022-08-21T02:37:54;13.70;99.90
55488;DHT22;41352;53.158;6.788;2022-08-21T02:40:24;13.70;99.90
55488;DHT22;41352;53.158;6.788;2022-08-21T02:42:50;13.70;99.90
55488;DHT22;41352;53.158;6.788;2022-08-21T02:45:18;13.70;99.90
55488;DHT22;41352;53.158;6.788;2022-08-21T02:47:49;13.70;99.90
55488;DHT22;41352;53.158;6.788;2022-08-21T02:50:18;13.60;99.90
55488;DHT22;41352;53.158;6.788;2022-08-21T02:52:44;13.60;99.90
55488;DHT22;41352;53.158;6.788;2022-08-21T02:55:10;13.60;99.90
55488;DHT22;41352;53.158;6.788;2022-08-21T02:57:36;13.60;99.90
55488;DHT22;41352;53.158;6.788;2022-08-21T03:00:04;13.50;99.90
55488;DHT22;41352;53.158;6.788;2022-08-21T03:02:31;13.50;99.90
55488;DHT22;41352;53.158;6.788;2022-08-21T03:04:56;13.50;99.90
55488;DHT22;41352;53.158;6.788;2022-08-21T03:07:22;13.50;99.90
55488;DHT22;41352;53.158;6.788;2022-08-21T03:09:48;13.40;99.90
55488;DHT22;41352;53.158;6.788;2022-08-21T03:12:13;13.50;99.90
55488;DHT22;41352;53.158;6.788;2022-08-21T03:14:39;13.50;99.90
55488;DHT22;41352;53.158;6.788;2022-08-21T03:17:05;13.40;99.90
55488;DHT22;41352;53.158;6.788;2022-08-21T03:19:32;13.40;99.90
55488;DHT22;41352;53.158;6.788;2022-08-21T03:21:58;13.30;99.90
55488;DHT22;41352;53.158;6.788;2022-08-21T03:24:24;13.30;99.90
55488;DHT22;41352;53.158;6.788;2022-08-21T03:26:50;13.20;99.90
55488;DHT22;41352;53.158;6.788;2022-08-21T03:29:15;13.20;99.90
55488;DHT22;41352;53.158;6.788;2022-08-21T03:31:41;13.20;99.90
55488;DHT22;41352;53.158;6.788;2022-08-21T03:34:07;13.20;99.90
55488;DHT22;41352;53.158;6.788;2022-08-21T03:36:32;13.20;99.90
55488;DHT22;41352;53.158;6.788;2022-08-21T03:38:58;13.20;99.90
55488;DHT22;41352;53.158;6.788;2022-08-21T03:41:24;13.20;99.90
55488;DHT22;41352;53.158;6.788;2022-08-21T03:43:49;13.20;99.90
55488;DHT22;41352;53.158;6.788;2022-08-21T03:46:15;13.20;99.90
55488;DHT22;41352;53.158;6.788;2022-08-21T03:48:41;13.20;99.90
55488;DHT22;41352;53.158;6.788;2022-08-21T03:51:07;13.10;99.90
55488;DHT22;41352;53.158;6.788;2022-08-21T03:53:34;13.10;99.90
55488;DHT22;41352;53.158;6.788;2022-08-21T03:56:00;13.00;99.90
55488;DHT22;41352;53.158;6.788;2022-08-21T03:58:27;13.00;99.90
55488;DHT22;41352;53.158;6.788;2022-08-21T04:00:56;13.00;99.90
55488;DHT22;41352;53.158;6.788;2022-08-21T04:03:23;13.00;99.90
55488;DHT22;41352;53.158;6.788;2022-08-21T04:05:49;13.00;99.90
55488;DHT22;41352;53.158;6.788;2022-08-21T04:08:16;12.90;99.90
55488;DHT22;41352;53.158;6.788;2022-08-21T04:10:48;12.90;99.90
55488;DHT22;41352;53.158;6.788;2022-08-21T04:13:15;12.80;99.90
55488;DHT22;41352;53.158;6.788;2022-08-21T04:15:41;12.80;99.90
55488;DHT22;41352;53.158;6.788;2022-08-21T04:18:07;12.80;99.90
55488;DHT22;41352;53.158;6.788;2022-08-21T04:20:34;12.80;99.90
55488;DHT22;41352;53.158;6.788;2022-08-21T04:23:00;12.80;99.90
55488;DHT22;41352;53.158;6.788;2022-08-21T04:25:26;12.70;99.90
55488;DHT22;41352;53.158;6.788;2022-08-21T04:27:53;12.70;99.90
55488;DHT22;41352;53.158;6.788;2022-08-21T04:30:19;12.70;99.90
55488;DHT22;41352;53.158;6.788;2022-08-21T04:32:47;12.70;99.90
55488;DHT22;41352;53.158;6.788;2022-08-21T04:35:15;12.70;99.90
55488;DHT22;41352;53.158;6.788;2022-08-21T04:37:41;12.70;99.90
55488;DHT22;41352;53.158;6.788;2022-08-21T04:40:09;12.70;99.90
55488;DHT22;41352;53.158;6.788;2022-08-21T04:42:43;12.70;99.90
55488;DHT22;41352;53.158;6.788;2022-08-21T04:45:19;12.70;99.90
55488;DHT22;41352;53.158;6.788;2022-08-21T04:47:50;12.70;99.90
55488;DHT22;41352;53.158;6.788;2022-08-21T04:50:17;12.80;99.90
55488;DHT22;41352;53.158;6.788;2022-08-21T04:52:43;12.80;99.90
55488;DHT22;41352;53.158;6.788;2022-08-21T04:55:09;12.90;99.90
55488;DHT22;41352;53.158;6.788;2022-08-21T04:57:36;12.80;99.90
55488;DHT22;41352;53.158;6.788;2022-08-21T05:00:04;12.90;99.90
55488;DHT22;41352;53.158;6.788;2022-08-21T05:02:31;12.90;99.90
55488;DHT22;41352;53.158;6.788;2022-08-21T05:04:59;13.00;99.90
55488;DHT22;41352;53.158;6.788;2022-08-21T05:07:28;12.90;99.90
55488;DHT22;41352;53.158;6.788;2022-08-21T05:09:55;13.00;99.90
55488;DHT22;41352;53.158;6.788;2022-08-21T05:12:22;13.00;99.90
55488;DHT22;41352;53.158;6.788;2022-08-21T05:14:47;13.10;99.90
55488;DHT22;41352;53.158;6.788;2022-08-21T05:17:13;13.20;99.90
55488;DHT22;41352;53.158;6.788;2022-08-21T05:19:39;13.30;99.90
55488;DHT22;41352;53.158;6.788;2022-08-21T05:22:05;13.40;99.90
55488;DHT22;41352;53.158;6.788;2022-08-21T05:24:32;13.50;99.90
55488;DHT22;41352;53.158;6.788;2022-08-21T05:26:58;13.60;99.90
55488;DHT22;41352;53.158;6.788;2022-08-21T05:29:24;13.70;99.90
55488;DHT22;41352;53.158;6.788;2022-08-21T05:31:50;13.90;99.90
55488;DHT22;41352;53.158;6.788;2022-08-21T05:34:21;14.00;99.90
55488;DHT22;41352;53.158;6.788;2022-08-21T05:36:47;14.10;99.90
55488;DHT22;41352;53.158;6.788;2022-08-21T05:39:13;14.20;99.90
55488;DHT22;41352;53.158;6.788;2022-08-21T05:41:39;14.30;99.90
55488;DHT22;41352;53.158;6.788;2022-08-21T05:44:05;14.50;99.90
55488;DHT22;41352;53.158;6.788;2022-08-21T05:46:30;14.60;99.90
55488;DHT22;41352;53.158;6.788;2022-08-21T05:48:56;14.70;99.90
55488;DHT22;41352;53.158;6.788;2022-08-21T05:51:22;14.80;99.90
55488;DHT22;41352;53.158;6.788;2022-08-21T05:53:47;15.00;99.90
55488;DHT22;41352;53.158;6.788;2022-08-21T05:56:13;15.10;99.90
55488;DHT22;41352;53.158;6.788;2022-08-21T05:58:39;15.30;99.90
55488;DHT22;41352;53.158;6.788;2022-08-21T06:01:05;15.50;99.90
55488;DHT22;41352;53.158;6.788;2022-08-21T06:03:35;15.50;99.90
55488;DHT22;41352;53.158;6.788;2022-08-21T06:06:01;15.80;99.90
55488;DHT22;41352;53.158;6.788;2022-08-21T06:08:27;15.90;99.90
55488;DHT22;41352;53.158;6.788;2022-08-21T06:10:54;16.10;99.90
55488;DHT22;41352;53.158;6.788;2022-08-21T06:13:22;16.30;99.90
55488;DHT22;41352;53.158;6.788;2022-08-21T06:15:48;16.50;99.90
55488;DHT22;41352;53.158;6.788;2022-08-21T06:18:14;16.70;99.90
55488;DHT22;41352;53.158;6.788;2022-08-21T06:20:41;16.90;99.90
55488;DHT22;41352;53.158;6.788;2022-08-21T06:23:07;17.10;99.90
55488;DHT22;41352;53.158;6.788;2022-08-21T06:25:34;17.30;99.90
55488;DHT22;41352;53.158;6.788;2022-08-21T06:28:05;17.40;99.90
55488;DHT22;41352;53.158;6.788;2022-08-21T06:30:32;17.60;99.90
55488;DHT22;41352;53.158;6.788;2022-08-21T06:32:58;17.80;99.90
55488;DHT22;41352;53.158;6.788;2022-08-21T06:35:24;18.00;99.90
55488;DHT22;41352;53.158;6.788;2022-08-21T06:37:54;18.20;99.90
55488;DHT22;41352;53.158;6.788;2022-08-21T06:40:20;18.20;99.90
55488;DHT22;41352;53.158;6.788;2022-08-21T06:42:46;18.50;99.90
55488;DHT22;41352;53.158;6.788;2022-08-21T06:45:12;18.50;99.90
55488;DHT22;41352;53.158;6.788;2022-08-21T06:47:38;18.70;99.90
55488;DHT22;41352;53.158;6.788;2022-08-21T06:50:04;18.90;99.90
55488;DHT22;41352;53.158;6.788;2022-08-21T06:52:33;19.10;99.90
55488;DHT22;41352;53.158;6.788;2022-08-21T06:54:59;19.30;99.90
55488;DHT22;41352;53.158;6.788;2022-08-21T06:57:25;19.40;99.90
55488;DHT22;41352;53.158;6.788;2022-08-21T06:59:51;19.50;99.90
55488;DHT22;41352;53.158;6.788;2022-08-21T07:02:17;19.50;99.90
55488;DHT22;41352;53.158;6.788;2022-08-21T07:04:43;19.70;99.90
55488;DHT22;41352;53.158;6.788;2022-08-21T07:07:09;19.90;99.90
55488;DHT22;41352;53.158;6.788;2022-08-21T07:09:34;20.00;99.90
55488;DHT22;41352;53.158;6.788;2022-08-21T07:12:01;20.30;99.90
55488;DHT22;41352;53.158;6.788;2022-08-21T07:14:27;20.40;99.90
55488;DHT22;41352;53.158;6.788;2022-08-21T07:16:53;20.70;99.90
55488;DHT22;41352;53.158;6.788;2022-08-21T07:19:19;20.80;99.90
55488;DHT22;41352;53.158;6.788;2022-08-21T07:21:44;20.70;99.90
55488;DHT22;41352;53.158;6.788;2022-08-21T07:24:10;20.90;99.90
55488;DHT22;41352;53.158;6.788;2022-08-21T07:26:36;21.10;99.90
55488;DHT22;41352;53.158;6.788;2022-08-21T07:29:03;21.00;99.90
55488;DHT22;41352;53.158;6.788;2022-08-21T07:31:28;21.10;99.90
55488;DHT22;41352;53.158;6.788;2022-08-21T07:33:54;21.00;99.90
55488;DHT22;41352;53.158;6.788;2022-08-21T07:36:20;21.40;99.90
55488;DHT22;41352;53.158;6.788;2022-08-21T07:38:46;21.20;99.90
55488;DHT22;41352;53.158;6.788;2022-08-21T07:41:18;21.30;99.90
55488;DHT22;41352;53.158;6.788;2022-08-21T07:43:44;21.60;99.90
55488;DHT22;41352;53.158;6.788;2022-08-21T07:46:10;21.70;99.90
55488;DHT22;41352;53.158;6.788;2022-08-21T07:48:37;21.70;99.90
55488;DHT22;41352;53.158;6.788;2022-08-21T07:51:06;21.90;99.90
55488;DHT22;41352;53.158;6.788;2022-08-21T07:53:33;22.10;99.90
55488;DHT22;41352;53.158;6.788;2022-08-21T07:55:59;22.30;99.90
55488;DHT22;41352;53.158;6.788;2022-08-21T07:58:24;22.30;99.90
55488;DHT22;41352;53.158;6.788;2022-08-21T08:00:50;22.40;99.90
55488;DHT22;41352;53.158;6.788;2022-08-21T08:03:16;22.60;99.90
55488;DHT22;41352;53.158;6.788;2022-08-21T08:05:42;22.90;99.90
55488;DHT22;41352;53.158;6.788;2022-08-21T08:08:08;23.40;99.90
55488;DHT22;41352;53.158;6.788;2022-08-21T08:10:35;22.60;99.90
55488;DHT22;41352;53.158;6.788;2022-08-21T08:13:01;23.70;99.90
55488;DHT22;41352;53.158;6.788;2022-08-21T08:15:27;23.70;99.90
55488;DHT22;41352;53.158;6.788;2022-08-21T08:17:53;24.00;99.90
55488;DHT22;41352;53.158;6.788;2022-08-21T08:20:21;24.10;99.90
55488;DHT22;41352;53.158;6.788;2022-08-21T08:22:49;25.00;99.90
55488;DHT22;41352;53.158;6.788;2022-08-21T08:25:15;25.30;99.90
55488;DHT22;41352;53.158;6.788;2022-08-21T08:27:42;25.50;99.90
55488;DHT22;41352;53.158;6.788;2022-08-21T08:30:10;25.70;99.90
55488;DHT22;41352;53.158;6.788;2022-08-21T08:32:36;25.70;99.90
55488;DHT22;41352;53.158;6.788;2022-08-21T08:35:03;26.00;99.90
55488;DHT22;41352;53.158;6.788;2022-08-21T08:37:29;25.40;99.90
55488;DHT22;41352;53.158;6.788;2022-08-21T08:39:55;25.20;99.90
55488;DHT22;41352;53.158;6.788;2022-08-21T08:42:28;25.10;99.90
55488;DHT22;41352;53.158;6.788;2022-08-21T08:44:59;25.10;99.90
55488;DHT22;41352;53.158;6.788;2022-08-21T08:47:27;25.20;99.90
55488;DHT22;41352;53.158;6.788;2022-08-21T08:50:07;25.50;99.90
55488;DHT22;41352;53.158;6.788;2022-08-21T08:52:48;25.50;99.90
55488;DHT22;41352;53.158;6.788;2022-08-21T08:55:32;25.50;99.90
55488;DHT22;41352;53.158;6.788;2022-08-21T08:57:58;25.90;99.90
55488;DHT22;41352;53.158;6.788;2022-08-21T09:00:24;26.30;99.90
55488;DHT22;41352;53.158;6.788;2022-08-21T09:02:54;25.80;99.90
55488;DHT22;41352;53.158;6.788;2022-08-21T09:05:55;26.20;99.90
55488;DHT22;41352;53.158;6.788;2022-08-21T09:11:16;26.50;99.00
55488;DHT22;41352;53.158;6.788;2022-08-21T09:19:54;25.60;99.10
55488;DHT22;41352;53.158;6.788;2022-08-21T09:25:28;26.30;98.00
55488;DHT22;41352;53.158;6.788;2022-08-21T09:27:56;26.60;99.20
55488;DHT22;41352;53.158;6.788;2022-08-21T09:30:30;26.00;99.80
55488;DHT22;41352;53.158;6.788;2022-08-21T09:32:56;26.60;97.60
55488;DHT22;41352;53.158;6.788;2022-08-21T09:35:23;26.20;99.60
55488;DHT22;41352;53.158;6.788;2022-08-21T09:37:55;26.60;99.70
55488;DHT22;41352;53.158;6.788;2022-08-21T09:43:01;26.70;99.10
55488;DHT22;41352;53.158;6.788;2022-08-21T09:45:27;27.40;99.20
55488;DHT22;41352;53.158;6.788;2022-08-21T09:47:53;27.40;99.40
55488;DHT22;41352;53.158;6.788;2022-08-21T09:50:26;27.30;97.60
55488;DHT22;41352;53.158;6.788;2022-08-21T09:52:55;27.10;98.20
55488;DHT22;41352;53.158;6.788;2022-08-21T09:55:49;26.60;99.90
55488;DHT22;41352;53.158;6.788;2022-08-21T09:58:36;27.10;99.20
55488;DHT22;41352;53.158;6.788;2022-08-21T10:01:04;27.90;99.20
55488;DHT22;41352;53.158;6.788;2022-08-21T10:03:30;27.20;98.20
55488;DHT22;41352;53.158;6.788;2022-08-21T10:06:08;27.30;99.80
55488;DHT22;41352;53.158;6.788;2022-08-21T10:08:38;27.80;99.10
55488;DHT22;41352;53.158;6.788;2022-08-21T10:11:10;27.20;99.40
55488;DHT22;41352;53.158;6.788;2022-08-21T10:14:07;26.80;98.60
55488;DHT22;41352;53.158;6.788;2022-08-21T10:16:49;27.50;98.90
55488;DHT22;41352;53.158;6.788;2022-08-21T10:19:30;27.40;99.20
55488;DHT22;41352;53.158;6.788;2022-08-21T10:22:12;27.00;98.90
55488;DHT22;41352;53.158;6.788;2022-08-21T10:28:17;27.20;99.30
55488;DHT22;41352;53.158;6.788;2022-08-21T10:31:02;27.70;98.30
55488;DHT22;41352;53.158;6.788;2022-08-21T10:39:35;27.20;99.20
55488;DHT22;41352;53.158;6.788;2022-08-21T10:42:25;26.40;99.00
55488;DHT22;41352;53.158;6.788;2022-08-21T10:47:52;27.00;98.60
55488;DHT22;41352;53.158;6.788;2022-08-21T10:56:15;27.40;98.10
55488;DHT22;41352;53.158;6.788;2022-08-21T10:58:50;27.50;96.60
55488;DHT22;41352;53.158;6.788;2022-08-21T11:04:12;28.00;96.90
55488;DHT22;41352;53.158;6.788;2022-08-21T11:06:46;27.50;98.00
55488;DHT22;41352;53.158;6.788;2022-08-21T11:09:20;26.50;97.80
55488;DHT22;41352;53.158;6.788;2022-08-21T11:12:29;26.00;98.50
55488;DHT22;41352;53.158;6.788;2022-08-21T11:17:42;25.40;98.90
55488;DHT22;41352;53.158;6.788;2022-08-21T11:22:58;25.60;99.30
55488;DHT22;41352;53.158;6.788;2022-08-21T11:25:34;25.70;99.80
55488;DHT22;41352;53.158;6.788;2022-08-21T11:28:01;25.40;99.50
55488;DHT22;41352;53.158;6.788;2022-08-21T11:30:39;25.20;99.80
55488;DHT22;41352;53.158;6.788;2022-08-21T11:33:53;25.20;99.90
55488;DHT22;41352;53.158;6.788;2022-08-21T11:36:31;24.40;99.90
55488;DHT22;41352;53.158;6.788;2022-08-21T11:47:56;23.50;99.90
55488;DHT22;41352;53.158;6.788;2022-08-21T11:50:28;23.50;99.90
55488;DHT22;41352;53.158;6.788;2022-08-21T11:58:29;22.80;99.90
55488;DHT22;41352;53.158;6.788;2022-08-21T12:01:14;22.60;99.90
55488;DHT22;41352;53.158;6.788;2022-08-21T12:03:53;22.30;99.90
55488;DHT22;41352;53.158;6.788;2022-08-21T12:06:39;22.10;99.90
55488;DHT22;41352;53.158;6.788;2022-08-21T12:09:30;22.00;99.90
55488;DHT22;41352;53.158;6.788;2022-08-21T12:12:03;22.00;99.90
55488;DHT22;41352;53.158;6.788;2022-08-21T12:17:08;22.80;99.90
55488;DHT22;41352;53.158;6.788;2022-08-21T12:19:35;27.40;99.90
55488;DHT22;41352;53.158;6.788;2022-08-21T12:29:55;34.70;94.60
55488;DHT22;41352;53.158;6.788;2022-08-21T12:35:01;36.00;94.40
55488;DHT22;41352;53.158;6.788;2022-08-21T12:39:58;36.70;92.00
55488;DHT22;41352;53.158;6.788;2022-08-21T12:42:41;37.00;91.70
55488;DHT22;41352;53.158;6.788;2022-08-21T12:45:23;35.50;91.10
55488;DHT22;41352;53.158;6.788;2022-08-21T12:50:41;37.30;90.80
55488;DHT22;41352;53.158;6.788;2022-08-21T12:55:45;36.80;86.40
55488;DHT22;41352;53.158;6.788;2022-08-21T12:58:22;34.90;89.60
55488;DHT22;41352;53.158;6.788;2022-08-21T13:00:51;33.60;90.40
55488;DHT22;41352;53.158;6.788;2022-08-21T13:03:17;32.60;91.40
55488;DHT22;41352;53.158;6.788;2022-08-21T13:05:43;30.60;92.20
55488;DHT22;41352;53.158;6.788;2022-08-21T13:08:11;29.30;93.70
55488;DHT22;41352;53.158;6.788;2022-08-21T13:10:40;28.20;95.30
55488;DHT22;41352;53.158;6.788;2022-08-21T13:13:12;28.10;96.20
55488;DHT22;41352;53.158;6.788;2022-08-21T13:15:42;28.50;95.60
55488;DHT22;41352;53.158;6.788;2022-08-21T13:18:07;28.60;95.90
55488;DHT22;41352;53.158;6.788;2022-08-21T13:20:38;28.70;95.90
55488;DHT22;41352;53.158;6.788;2022-08-21T13:23:25;27.90;95.80
55488;DHT22;41352;53.158;6.788;2022-08-21T13:25:51;27.00;95.60
55488;DHT22;41352;53.158;6.788;2022-08-21T13:28:17;27.00;96.50
55488;DHT22;41352;53.158;6.788;2022-08-21T13:30:49;26.40;97.20
55488;DHT22;41352;53.158;6.788;2022-08-21T13:33:18;26.30;97.30
55488;DHT22;41352;53.158;6.788;2022-08-21T13:38:26;26.60;96.50
55488;DHT22;41352;53.158;6.788;2022-08-21T13:41:08;26.80;97.30
55488;DHT22;41352;53.158;6.788;2022-08-21T13:43:37;26.70;97.00
55488;DHT22;41352;53.158;6.788;2022-08-21T13:46:08;25.80;97.50
55488;DHT22;41352;53.158;6.788;2022-08-21T13:48:35;25.70;98.00
55488;DHT22;41352;53.158;6.788;2022-08-21T13:51:02;25.80;97.00
55488;DHT22;41352;53.158;6.788;2022-08-21T13:53:43;25.70;97.00
55488;DHT22;41352;53.158;6.788;2022-08-21T13:56:22;25.90;97.90
55488;DHT22;41352;53.158;6.788;2022-08-21T13:58:48;25.90;97.20
55488;DHT22;41352;53.158;6.788;2022-08-21T14:01:33;26.20;97.30
55488;DHT22;41352;53.158;6.788;2022-08-21T14:04:15;26.20;97.30
55488;DHT22;41352;53.158;6.788;2022-08-21T14:06:43;26.00;97.60
55488;DHT22;41352;53.158;6.788;2022-08-21T14:09:11;26.10;97.90
55488;DHT22;41352;53.158;6.788;2022-08-21T14:11:38;25.80;98.00
55488;DHT22;41352;53.158;6.788;2022-08-21T14:14:25;25.70;98.00
55488;DHT22;41352;53.158;6.788;2022-08-21T14:17:06;26.10;97.70
55488;DHT22;41352;53.158;6.788;2022-08-21T14:19:38;25.80;98.10
55488;DHT22;41352;53.158;6.788;2022-08-21T14:25:07;25.30;98.10
55488;DHT22;41352;53.158;6.788;2022-08-21T14:27:42;25.60;98.80
55488;DHT22;41352;53.158;6.788;2022-08-21T14:30:33;25.50;98.20
55488;DHT22;41352;53.158;6.788;2022-08-21T14:32:58;25.40;99.00
55488;DHT22;41352;53.158;6.788;2022-08-21T14:35:24;25.40;98.20
55488;DHT22;41352;53.158;6.788;2022-08-21T14:37:50;25.50;98.30
55488;DHT22;41352;53.158;6.788;2022-08-21T14:40:17;25.40;98.70
55488;DHT22;41352;53.158;6.788;2022-08-21T14:42:44;25.00;98.50
55488;DHT22;41352;53.158;6.788;2022-08-21T14:45:23;25.00;99.00
55488;DHT22;41352;53.158;6.788;2022-08-21T14:47:51;24.90;99.20
55488;DHT22;41352;53.158;6.788;2022-08-21T14:50:17;24.70;99.20
55488;DHT22;41352;53.158;6.788;2022-08-21T14:52:42;25.70;98.60
55488;DHT22;41352;53.158;6.788;2022-08-21T14:55:12;25.30;98.40
55488;DHT22;41352;53.158;6.788;2022-08-21T14:57:42;27.50;97.20
55488;DHT22;41352;53.158;6.788;2022-08-21T15:00:12;29.50;95.80
55488;DHT22;41352;53.158;6.788;2022-08-21T15:02:38;27.80;94.60
55488;DHT22;41352;53.158;6.788;2022-08-21T15:05:04;26.80;96.40
55488;DHT22;41352;53.158;6.788;2022-08-21T15:07:30;26.50;97.20
55488;DHT22;41352;53.158;6.788;2022-08-21T15:09:55;26.00;98.00
55488;DHT22;41352;53.158;6.788;2022-08-21T15:12:22;25.70;98.80
55488;DHT22;41352;53.158;6.788;2022-08-21T15:14:48;25.70;98.90
55488;DHT22;41352;53.158;6.788;2022-08-21T15:17:14;25.70;99.20
55488;DHT22;41352;53.158;6.788;2022-08-21T15:19:40;25.40;99.90
55488;DHT22;41352;53.158;6.788;2022-08-21T15:22:06;25.40;99.90
55488;DHT22;41352;53.158;6.788;2022-08-21T15:24:32;24.90;99.90
55488;DHT22;41352;53.158;6.788;2022-08-21T15:27:00;24.50;99.90
55488;DHT22;41352;53.158;6.788;2022-08-21T15:29:26;24.40;99.90
55488;DHT22;41352;53.158;6.788;2022-08-21T15:32:14;24.60;99.90
55488;DHT22;41352;53.158;6.788;2022-08-21T15:34:41;24.20;99.90
55488;DHT22;41352;53.158;6.788;2022-08-21T15:37:09;24.20;99.90
55488;DHT22;41352;53.158;6.788;2022-08-21T15:39:35;23.90;99.90
55488;DHT22;41352;53.158;6.788;2022-08-21T15:42:01;23.50;99.90
55488;DHT22;41352;53.158;6.788;2022-08-21T15:44:28;23.50;99.90
55488;DHT22;41352;53.158;6.788;2022-08-21T15:46:55;23.60;99.90
55488;DHT22;41352;53.158;6.788;2022-08-21T15:49:22;23.60;99.90
55488;DHT22;41352;53.158;6.788;2022-08-21T15:51:48;23.80;99.90
55488;DHT22;41352;53.158;6.788;2022-08-21T15:54:13;23.60;99.90
55488;DHT22;41352;53.158;6.788;2022-08-21T15:56:42;23.50;99.90
55488;DHT22;41352;53.158;6.788;2022-08-21T15:59:16;23.90;99.90
55488;DHT22;41352;53.158;6.788;2022-08-21T16:01:42;23.80;99.90
55488;DHT22;41352;53.158;6.788;2022-08-21T16:04:08;23.70;99.90
55488;DHT22;41352;53.158;6.788;2022-08-21T16:06:34;23.40;99.90
55488;DHT22;41352;53.158;6.788;2022-08-21T16:09:00;23.00;99.90
55488;DHT22;41352;53.158;6.788;2022-08-21T16:11:26;23.20;99.90
55488;DHT22;41352;53.158;6.788;2022-08-21T16:13:53;23.30;99.90
55488;DHT22;41352;53.158;6.788;2022-08-21T16:16:22;23.30;99.90
55488;DHT22;41352;53.158;6.788;2022-08-21T16:18:49;23.30;99.90
55488;DHT22;41352;53.158;6.788;2022-08-21T16:21:15;23.60;99.90
55488;DHT22;41352;53.158;6.788;2022-08-21T16:23:42;23.20;99.90
55488;DHT22;41352;53.158;6.788;2022-08-21T16:26:09;23.20;99.90
55488;DHT22;41352;53.158;6.788;2022-08-21T16:28:38;23.00;99.90
55488;DHT22;41352;53.158;6.788;2022-08-21T16:31:04;23.00;99.90
55488;DHT22;41352;53.158;6.788;2022-08-21T16:33:38;22.80;99.90
55488;DHT22;41352;53.158;6.788;2022-08-21T16:36:04;22.50;99.90
55488;DHT22;41352;53.158;6.788;2022-08-21T16:38:30;22.30;99.90
55488;DHT22;41352;53.158;6.788;2022-08-21T16:40:58;22.30;99.90
55488;DHT22;41352;53.158;6.788;2022-08-21T16:43:27;22.40;99.90
55488;DHT22;41352;53.158;6.788;2022-08-21T16:45:55;22.40;99.90
55488;DHT22;41352;53.158;6.788;2022-08-21T16:48:22;22.30;99.90
55488;DHT22;41352;53.158;6.788;2022-08-21T16:50:48;22.40;99.90
55488;DHT22;41352;53.158;6.788;2022-08-21T16:53:14;22.60;99.90
55488;DHT22;41352;53.158;6.788;2022-08-21T16:55:40;22.40;99.90
55488;DHT22;41352;53.158;6.788;2022-08-21T16:58:27;22.40;99.90
55488;DHT22;41352;53.158;6.788;2022-08-21T17:00:54;22.60;99.90
55488;DHT22;41352;53.158;6.788;2022-08-21T17:03:31;22.60;99.90
55488;DHT22;41352;53.158;6.788;2022-08-21T17:05:59;22.40;99.90